sensor_id;sensor_type;location;lat;lon;timestamp;temperature;humidity
25450;DHT22;13371;52.080;5.624;2022-07-23T00:02:06;19.30;90.50
25450;DHT22;13371;52.080;5.624;2022-07-23T00:04:32;19.20;90.60
25450;DHT22;13371;52.080;5.624;2022-07-23T00:06:58;19.30;90.40
25450;DHT22;13371;52.080;5.624;2022-07-23T00:09:23;19.30;90.40
25450;DHT22;13371;52.080;5.624;2022-07-23T00:11:49;19.20;90.40
25450;DHT22;13371;52.080;5.624;2022-07-23T00:14:15;19.10;90.40
25450;DHT22;13371;52.080;5.624;2022-07-23T00:16:40;19.00;90.70
25450;DHT22;13371;52.080;5.624;2022-07-23T00:19:06;19.00;90.70
25450;DHT22;13371;52.080;5.624;2022-07-23T00:21:31;19.00;90.60
25450;DHT22;13371;52.080;5.624;2022-07-23T00:23:57;18.90;90.50
25450;DHT22;13371;52.080;5.624;2022-07-23T00:26:22;19.00;90.60
25450;DHT22;13371;52.080;5.624;2022-07-23T00:28:48;18.80;90.60
25450;DHT22;13371;52.080;5.624;2022-07-23T00:31:13;18.80;90.90
25450;DHT22;13371;52.080;5.624;2022-07-23T00:33:39;18.80;91.00
25450;DHT22;13371;52.080;5.624;2022-07-23T00:36:05;18.80;90.90
25450;DHT22;13371;52.080;5.624;2022-07-23T00:38:30;18.80;90.60
25450;DHT22;13371;52.080;5.624;2022-07-23T00:40:57;18.70;90.90
25450;DHT22;13371;52.080;5.624;2022-07-23T00:43:23;18.60;91.10
25450;DHT22;13371;52.080;5.624;2022-07-23T00:45:49;18.70;91.10
25450;DHT22;13371;52.080;5.624;2022-07-23T00:48:15;18.70;91.00
25450;DHT22;13371;52.080;5.624;2022-07-23T00:50:40;18.60;91.20
25450;DHT22;13371;52.080;5.624;2022-07-23T00:53:06;18.50;91.20
25450;DHT22;13371;52.080;5.624;2022-07-23T00:55:32;18.00;91.70
25450;DHT22;13371;52.080;5.624;2022-07-23T00:57:58;18.20;91.90
25450;DHT22;13371;52.080;5.624;2022-07-23T01:00:24;18.40;91.70
25450;DHT22;13371;52.080;5.624;2022-07-23T01:02:50;18.40;91.60
25450;DHT22;13371;52.080;5.624;2022-07-23T01:05:16;18.40;91.60
25450;DHT22;13371;52.080;5.624;2022-07-23T01:07:42;18.50;91.60
25450;DHT22;13371;52.080;5.624;2022-07-23T01:10:08;18.50;91.20
25450;DHT22;13371;52.080;5.624;2022-07-23T01:12:54;18.40;91.50
25450;DHT22;13371;52.080;5.624;2022-07-23T01:15:20;18.40;91.70
25450;DHT22;13371;52.080;5.624;2022-07-23T01:17:46;18.50;91.60
25450;DHT22;13371;52.080;5.624;2022-07-23T01:20:12;18.50;91.60
25450;DHT22;13371;52.080;5.624;2022-07-23T01:22:37;18.60;91.50
25450;DHT22;13371;52.080;5.624;2022-07-23T01:25:03;18.50;91.70
25450;DHT22;13371;52.080;5.624;2022-07-23T01:27:29;18.50;91.70
25450;DHT22;13371;52.080;5.624;2022-07-23T01:29:55;18.40;91.70
25450;DHT22;13371;52.080;5.624;2022-07-23T01:32:22;18.50;91.60
25450;DHT22;13371;52.080;5.624;2022-07-23T01:34:47;18.50;91.70
25450;DHT22;13371;52.080;5.624;2022-07-23T01:37:13;18.50;91.60
25450;DHT22;13371;52.080;5.624;2022-07-23T01:39:38;18.40;91.60
25450;DHT22;13371;52.080;5.624;2022-07-23T01:42:04;18.40;91.70
25450;DHT22;13371;52.080;5.624;2022-07-23T01:44:30;18.50;91.60
25450;DHT22;13371;52.080;5.624;2022-07-23T01:46:56;18.50;91.40
25450;DHT22;13371;52.080;5.624;2022-07-23T01:49:22;18.40;91.80
25450;DHT22;13371;52.080;5.624;2022-07-23T01:51:47;18.30;91.80
25450;DHT22;13371;52.080;5.624;2022-07-23T01:54:33;18.30;91.80
25450;DHT22;13371;52.080;5.624;2022-07-23T01:56:59;18.30;91.90
25450;DHT22;13371;52.080;5.624;2022-07-23T01:59:25;18.30;91.70
25450;DHT22;13371;52.080;5.624;2022-07-23T02:01:51;18.30;91.60
25450;DHT22;13371;52.080;5.624;2022-07-23T02:04:18;18.30;91.60
25450;DHT22;13371;52.080;5.624;2022-07-23T02:06:44;18.30;91.60
25450;DHT22;13371;52.080;5.624;2022-07-23T02:09:10;18.40;91.40
25450;DHT22;13371;52.080;5.624;2022-07-23T02:11:36;18.30;91.40
25450;DHT22;13371;52.080;5.624;2022-07-23T02:14:02;18.30;91.30
25450;DHT22;13371;52.080;5.624;2022-07-23T02:16:28;18.30;91.30
25450;DHT22;13371;52.080;5.624;2022-07-23T02:18:53;18.20;91.20
25450;DHT22;13371;52.080;5.624;2022-07-23T02:21:19;18.30;91.20
25450;DHT22;13371;52.080;5.624;2022-07-23T02:23:44;18.10;91.20
25450;DHT22;13371;52.080;5.624;2022-07-23T02:26:10;18.10;91.40
25450;DHT22;13371;52.080;5.624;2022-07-23T02:28:35;18.10;91.30
25450;DHT22;13371;52.080;5.624;2022-07-23T02:31:01;18.00;91.40
25450;DHT22;13371;52.080;5.624;2022-07-23T02:33:26;18.10;91.40
25450;DHT22;13371;52.080;5.624;2022-07-23T02:35:52;18.00;91.40
25450;DHT22;13371;52.080;5.624;2022-07-23T02:38:18;17.90;91.40
25450;DHT22;13371;52.080;5.624;2022-07-23T02:40:43;17.90;91.40
25450;DHT22;13371;52.080;5.624;2022-07-23T02:43:09;18.00;91.40
25450;DHT22;13371;52.080;5.624;2022-07-23T02:45:34;18.00;91.30
25450;DHT22;13371;52.080;5.624;2022-07-23T02:48:00;17.90;91.30
25450;DHT22;13371;52.080;5.624;2022-07-23T02:50:25;18.00;91.30
25450;DHT22;13371;52.080;5.624;2022-07-23T02:52:51;17.90;91.40
25450;DHT22;13371;52.080;5.624;2022-07-23T02:55:16;17.90;91.30
25450;DHT22;13371;52.080;5.624;2022-07-23T02:57:42;17.80;91.40
25450;DHT22;13371;52.080;5.624;2022-07-23T03:00:08;17.70;91.50
25450;DHT22;13371;52.080;5.624;2022-07-23T03:02:34;17.90;91.30
25450;DHT22;13371;52.080;5.624;2022-07-23T03:04:59;17.70;91.50
25450;DHT22;13371;52.080;5.624;2022-07-23T03:07:25;17.80;91.40
25450;DHT22;13371;52.080;5.624;2022-07-23T03:09:50;17.60;91.40
25450;DHT22;13371;52.080;5.624;2022-07-23T03:12:16;17.50;91.50
25450;DHT22;13371;52.080;5.624;2022-07-23T03:14:42;17.50;91.70
25450;DHT22;13371;52.080;5.624;2022-07-23T03:17:08;17.60;91.60
25450;DHT22;13371;52.080;5.624;2022-07-23T03:19:33;17.50;91.50
25450;DHT22;13371;52.080;5.624;2022-07-23T03:21:59;17.50;91.60
25450;DHT22;13371;52.080;5.624;2022-07-23T03:24:24;17.40;91.70
25450;DHT22;13371;52.080;5.624;2022-07-23T03:27:10;17.50;91.60
25450;DHT22;13371;52.080;5.624;2022-07-23T03:29:36;17.50;91.50
25450;DHT22;13371;52.080;5.624;2022-07-23T03:32:03;17.00;92.00
25450;DHT22;13371;52.080;5.624;2022-07-23T03:34:28;16.80;92.70
25450;DHT22;13371;52.080;5.624;2022-07-23T03:36:54;16.70;92.70
25450;DHT22;13371;52.080;5.624;2022-07-23T03:39:19;16.90;92.60
25450;DHT22;13371;52.080;5.624;2022-07-23T03:41:45;17.00;92.50
25450;DHT22;13371;52.080;5.624;2022-07-23T03:44:11;17.00;92.40
25450;DHT22;13371;52.080;5.624;2022-07-23T03:46:36;17.10;92.30
25450;DHT22;13371;52.080;5.624;2022-07-23T03:49:02;17.30;91.90
25450;DHT22;13371;52.080;5.624;2022-07-23T03:51:27;17.20;91.90
25450;DHT22;13371;52.080;5.624;2022-07-23T03:53:53;17.00;92.00
25450;DHT22;13371;52.080;5.624;2022-07-23T03:56:20;17.10;92.20
25450;DHT22;13371;52.080;5.624;2022-07-23T03:58:45;17.10;92.10
25450;DHT22;13371;52.080;5.624;2022-07-23T04:01:11;17.30;91.90
25450;DHT22;13371;52.080;5.624;2022-07-23T04:03:37;17.30;92.30
25450;DHT22;13371;52.080;5.624;2022-07-23T04:06:03;17.20;92.00
25450;DHT22;13371;52.080;5.624;2022-07-23T04:08:29;17.20;91.70
25450;DHT22;13371;52.080;5.624;2022-07-23T04:10:55;17.10;91.90
25450;DHT22;13371;52.080;5.624;2022-07-23T04:13:20;17.10;92.00
25450;DHT22;13371;52.080;5.624;2022-07-23T04:15:46;17.00;92.20
25450;DHT22;13371;52.080;5.624;2022-07-23T04:18:12;16.70;92.40
25450;DHT22;13371;52.080;5.624;2022-07-23T04:20:38;16.80;92.40
25450;DHT22;13371;52.080;5.624;2022-07-23T04:23:03;17.10;92.30
25450;DHT22;13371;52.080;5.624;2022-07-23T04:25:29;17.10;92.10
25450;DHT22;13371;52.080;5.624;2022-07-23T04:27:54;17.00;92.00
25450;DHT22;13371;52.080;5.624;2022-07-23T04:30:20;16.70;92.30
25450;DHT22;13371;52.080;5.624;2022-07-23T04:32:45;16.50;93.20
25450;DHT22;13371;52.080;5.624;2022-07-23T04:35:11;16.60;93.00
25450;DHT22;13371;52.080;5.624;2022-07-23T04:37:36;16.70;93.00
25450;DHT22;13371;52.080;5.624;2022-07-23T04:40:02;16.90;92.70
25450;DHT22;13371;52.080;5.624;2022-07-23T04:42:28;16.80;92.70
25450;DHT22;13371;52.080;5.624;2022-07-23T04:44:53;16.90;92.60
25450;DHT22;13371;52.080;5.624;2022-07-23T04:47:19;17.00;92.80
25450;DHT22;13371;52.080;5.624;2022-07-23T04:49:44;16.90;92.80
25450;DHT22;13371;52.080;5.624;2022-07-23T04:52:10;17.00;92.70
25450;DHT22;13371;52.080;5.624;2022-07-23T04:54:35;17.20;92.60
25450;DHT22;13371;52.080;5.624;2022-07-23T04:57:01;17.10;93.00
25450;DHT22;13371;52.080;5.624;2022-07-23T04:59:27;17.20;92.50
25450;DHT22;13371;52.080;5.624;2022-07-23T05:01:52;17.20;92.50
25450;DHT22;13371;52.080;5.624;2022-07-23T05:04:18;17.30;92.50
25450;DHT22;13371;52.080;5.624;2022-07-23T05:06:43;17.30;92.50
25450;DHT22;13371;52.080;5.624;2022-07-23T05:09:09;17.30;92.40
25450;DHT22;13371;52.080;5.624;2022-07-23T05:11:34;17.30;92.40
25450;DHT22;13371;52.080;5.624;2022-07-23T05:14:00;17.20;92.60
25450;DHT22;13371;52.080;5.624;2022-07-23T05:16:25;17.30;92.70
25450;DHT22;13371;52.080;5.624;2022-07-23T05:18:51;17.40;92.70
25450;DHT22;13371;52.080;5.624;2022-07-23T05:21:16;17.40;92.60
25450;DHT22;13371;52.080;5.624;2022-07-23T05:23:42;17.50;92.60
25450;DHT22;13371;52.080;5.624;2022-07-23T05:26:07;17.40;92.80
25450;DHT22;13371;52.080;5.624;2022-07-23T05:28:33;17.50;92.90
25450;DHT22;13371;52.080;5.624;2022-07-23T05:30:59;17.40;92.90
25450;DHT22;13371;52.080;5.624;2022-07-23T05:33:24;17.60;93.10
25450;DHT22;13371;52.080;5.624;2022-07-23T05:35:50;17.70;93.00
25450;DHT22;13371;52.080;5.624;2022-07-23T05:38:15;17.70;93.00
25450;DHT22;13371;52.080;5.624;2022-07-23T05:40:41;17.90;93.00
25450;DHT22;13371;52.080;5.624;2022-07-23T05:43:06;18.10;92.80
25450;DHT22;13371;52.080;5.624;2022-07-23T05:45:32;17.90;93.00
25450;DHT22;13371;52.080;5.624;2022-07-23T05:47:58;17.90;93.40
25450;DHT22;13371;52.080;5.624;2022-07-23T05:50:23;17.90;93.60
25450;DHT22;13371;52.080;5.624;2022-07-23T05:52:49;17.80;94.30
25450;DHT22;13371;52.080;5.624;2022-07-23T05:55:14;18.10;93.90
25450;DHT22;13371;52.080;5.624;2022-07-23T05:57:40;18.30;93.40
25450;DHT22;13371;52.080;5.624;2022-07-23T06:00:07;18.40;93.20
25450;DHT22;13371;52.080;5.624;2022-07-23T06:02:34;18.30;93.30
25450;DHT22;13371;52.080;5.624;2022-07-23T06:04:59;17.90;93.70
25450;DHT22;13371;52.080;5.624;2022-07-23T06:07:25;17.90;94.00
25450;DHT22;13371;52.080;5.624;2022-07-23T06:09:50;17.70;94.10
25450;DHT22;13371;52.080;5.624;2022-07-23T06:12:16;17.60;94.50
25450;DHT22;13371;52.080;5.624;2022-07-23T06:14:42;17.90;94.00
25450;DHT22;13371;52.080;5.624;2022-07-23T06:17:08;18.20;93.60
25450;DHT22;13371;52.080;5.624;2022-07-23T06:19:34;18.30;93.30
25450;DHT22;13371;52.080;5.624;2022-07-23T06:21:59;18.50;93.30
25450;DHT22;13371;52.080;5.624;2022-07-23T06:24:25;18.60;93.10
25450;DHT22;13371;52.080;5.624;2022-07-23T06:26:51;18.80;92.90
25450;DHT22;13371;52.080;5.624;2022-07-23T06:29:16;18.80;92.80
25450;DHT22;13371;52.080;5.624;2022-07-23T06:31:42;19.10;92.80
25450;DHT22;13371;52.080;5.624;2022-07-23T06:34:08;19.20;91.70
25450;DHT22;13371;52.080;5.624;2022-07-23T06:36:33;19.20;91.90
25450;DHT22;13371;52.080;5.624;2022-07-23T06:38:59;19.30;91.90
25450;DHT22;13371;52.080;5.624;2022-07-23T06:41:24;19.00;92.20
25450;DHT22;13371;52.080;5.624;2022-07-23T06:43:50;19.20;91.80
25450;DHT22;13371;52.080;5.624;2022-07-23T06:46:16;19.60;91.20
25450;DHT22;13371;52.080;5.624;2022-07-23T06:48:41;19.90;90.80
25450;DHT22;13371;52.080;5.624;2022-07-23T06:51:07;19.80;90.90
25450;DHT22;13371;52.080;5.624;2022-07-23T06:53:32;19.90;90.70
25450;DHT22;13371;52.080;5.624;2022-07-23T06:55:58;19.90;90.60
25450;DHT22;13371;52.080;5.624;2022-07-23T06:58:24;20.10;90.50
25450;DHT22;13371;52.080;5.624;2022-07-23T07:00:49;20.30;90.60
25450;DHT22;13371;52.080;5.624;2022-07-23T07:03:17;20.40;90.00
25450;DHT22;13371;52.080;5.624;2022-07-23T07:05:42;20.70;90.10
25450;DHT22;13371;52.080;5.624;2022-07-23T07:08:08;20.70;88.90
25450;DHT22;13371;52.080;5.624;2022-07-23T07:10:33;20.70;89.10
25450;DHT22;13371;52.080;5.624;2022-07-23T07:12:59;20.40;88.60
25450;DHT22;13371;52.080;5.624;2022-07-23T07:15:25;20.70;89.00
25450;DHT22;13371;52.080;5.624;2022-07-23T07:17:50;20.90;87.70
25450;DHT22;13371;52.080;5.624;2022-07-23T07:20:16;20.80;88.50
25450;DHT22;13371;52.080;5.624;2022-07-23T07:22:42;21.10;88.40
25450;DHT22;13371;52.080;5.624;2022-07-23T07:25:07;21.00;86.60
25450;DHT22;13371;52.080;5.624;2022-07-23T07:27:33;21.10;86.50
25450;DHT22;13371;52.080;5.624;2022-07-23T07:29:59;21.00;85.60
25450;DHT22;13371;52.080;5.624;2022-07-23T07:32:24;20.40;85.10
25450;DHT22;13371;52.080;5.624;2022-07-23T07:34:50;20.90;86.80
25450;DHT22;13371;52.080;5.624;2022-07-23T07:37:16;21.20;86.10
25450;DHT22;13371;52.080;5.624;2022-07-23T07:39:41;21.30;84.30
25450;DHT22;13371;52.080;5.624;2022-07-23T07:42:10;21.60;84.30
25450;DHT22;13371;52.080;5.624;2022-07-23T07:44:36;21.90;83.60
25450;DHT22;13371;52.080;5.624;2022-07-23T07:47:01;21.60;81.80
25450;DHT22;13371;52.080;5.624;2022-07-23T07:49:27;21.40;82.70
25450;DHT22;13371;52.080;5.624;2022-07-23T07:51:52;21.60;84.40
25450;DHT22;13371;52.080;5.624;2022-07-23T07:54:18;22.00;84.20
25450;DHT22;13371;52.080;5.624;2022-07-23T07:56:43;22.20;83.00
25450;DHT22;13371;52.080;5.624;2022-07-23T07:59:09;22.40;83.30
25450;DHT22;13371;52.080;5.624;2022-07-23T08:01:36;22.30;81.40
25450;DHT22;13371;52.080;5.624;2022-07-23T08:04:01;22.50;82.50
25450;DHT22;13371;52.080;5.624;2022-07-23T08:06:27;22.70;82.00
25450;DHT22;13371;52.080;5.624;2022-07-23T08:08:52;22.60;80.40
25450;DHT22;13371;52.080;5.624;2022-07-23T08:11:18;22.70;80.50
25450;DHT22;13371;52.080;5.624;2022-07-23T08:13:43;22.70;79.30
25450;DHT22;13371;52.080;5.624;2022-07-23T08:16:12;23.00;80.30
25450;DHT22;13371;52.080;5.624;2022-07-23T08:18:37;22.90;79.30
25450;DHT22;13371;52.080;5.624;2022-07-23T08:21:03;22.90;78.00
25450;DHT22;13371;52.080;5.624;2022-07-23T08:23:31;23.00;77.50
25450;DHT22;13371;52.080;5.624;2022-07-23T08:25:57;23.00;77.00
25450;DHT22;13371;52.080;5.624;2022-07-23T08:28:25;23.30;78.70
25450;DHT22;13371;52.080;5.624;2022-07-23T08:30:50;23.40;75.60
25450;DHT22;13371;52.080;5.624;2022-07-23T08:33:17;23.10;76.60
25450;DHT22;13371;52.080;5.624;2022-07-23T08:35:48;23.10;75.90
25450;DHT22;13371;52.080;5.624;2022-07-23T08:38:18;23.20;76.50
25450;DHT22;13371;52.080;5.624;2022-07-23T08:40:46;22.90;76.30
25450;DHT22;13371;52.080;5.624;2022-07-23T08:43:14;22.60;78.40
25450;DHT22;13371;52.080;5.624;2022-07-23T08:45:46;22.90;79.60
25450;DHT22;13371;52.080;5.624;2022-07-23T08:48:17;23.00;78.10
25450;DHT22;13371;52.080;5.624;2022-07-23T08:50:45;22.80;79.00
25450;DHT22;13371;52.080;5.624;2022-07-23T08:53:11;23.30;79.30
25450;DHT22;13371;52.080;5.624;2022-07-23T08:55:37;23.70;79.60
25450;DHT22;13371;52.080;5.624;2022-07-23T08:58:03;24.00;75.50
25450;DHT22;13371;52.080;5.624;2022-07-23T09:00:28;24.00;75.60
25450;DHT22;13371;52.080;5.624;2022-07-23T09:02:55;24.20;74.60
25450;DHT22;13371;52.080;5.624;2022-07-23T09:05:20;24.30;74.10
25450;DHT22;13371;52.080;5.624;2022-07-23T09:08:09;24.30;73.00
25450;DHT22;13371;52.080;5.624;2022-07-23T09:15:59;24.70;73.50
25450;DHT22;13371;52.080;5.624;2022-07-23T09:21:31;24.60;72.50
25450;DHT22;13371;52.080;5.624;2022-07-23T09:31:41;25.50;71.90
25450;DHT22;13371;52.080;5.624;2022-07-23T09:36:46;25.40;70.90
25450;DHT22;13371;52.080;5.624;2022-07-23T09:39:14;25.40;70.70
25450;DHT22;13371;52.080;5.624;2022-07-23T09:41:45;25.60;66.60
25450;DHT22;13371;52.080;5.624;2022-07-23T09:44:16;25.80;70.40
25450;DHT22;13371;52.080;5.624;2022-07-23T09:46:44;25.90;67.30
25450;DHT22;13371;52.080;5.624;2022-07-23T09:49:13;25.60;68.80
25450;DHT22;13371;52.080;5.624;2022-07-23T09:51:51;25.60;70.50
25450;DHT22;13371;52.080;5.624;2022-07-23T09:54:38;26.20;71.80
25450;DHT22;13371;52.080;5.624;2022-07-23T09:57:10;26.30;69.90
25450;DHT22;13371;52.080;5.624;2022-07-23T09:59:40;26.20;68.10
25450;DHT22;13371;52.080;5.624;2022-07-23T10:02:10;26.50;68.00
25450;DHT22;13371;52.080;5.624;2022-07-23T10:04:37;26.80;66.00
25450;DHT22;13371;52.080;5.624;2022-07-23T10:07:05;26.80;64.20
25450;DHT22;13371;52.080;5.624;2022-07-23T10:09:40;27.20;67.50
25450;DHT22;13371;52.080;5.624;2022-07-23T10:12:11;27.30;65.00
25450;DHT22;13371;52.080;5.624;2022-07-23T10:14:39;27.40;65.50
25450;DHT22;13371;52.080;5.624;2022-07-23T10:17:06;27.30;64.20
25450;DHT22;13371;52.080;5.624;2022-07-23T10:19:32;27.40;66.20
25450;DHT22;13371;52.080;5.624;2022-07-23T10:22:14;27.40;63.70
25450;DHT22;13371;52.080;5.624;2022-07-23T10:30:36;27.40;61.30
25450;DHT22;13371;52.080;5.624;2022-07-23T10:33:41;26.50;65.70
25450;DHT22;13371;52.080;5.624;2022-07-23T10:36:32;27.00;64.40
25450;DHT22;13371;52.080;5.624;2022-07-23T10:39:19;27.10;66.20
25450;DHT22;13371;52.080;5.624;2022-07-23T10:41:47;27.30;64.40
25450;DHT22;13371;52.080;5.624;2022-07-23T10:44:16;27.40;63.20
25450;DHT22;13371;52.080;5.624;2022-07-23T10:47:04;27.20;64.60
25450;DHT22;13371;52.080;5.624;2022-07-23T10:49:36;27.40;64.30
25450;DHT22;13371;52.080;5.624;2022-07-23T10:52:24;27.60;62.90
25450;DHT22;13371;52.080;5.624;2022-07-23T10:54:55;27.80;62.20
25450;DHT22;13371;52.080;5.624;2022-07-23T10:57:23;28.10;61.40
25450;DHT22;13371;52.080;5.624;2022-07-23T11:02:31;27.20;59.60
25450;DHT22;13371;52.080;5.624;2022-07-23T11:05:04;27.50;62.20
25450;DHT22;13371;52.080;5.624;2022-07-23T11:07:30;27.50;61.20
25450;DHT22;13371;52.080;5.624;2022-07-23T11:09:56;27.30;61.60
25450;DHT22;13371;52.080;5.624;2022-07-23T11:15:12;27.80;63.00
25450;DHT22;13371;52.080;5.624;2022-07-23T11:20:21;27.70;60.40
25450;DHT22;13371;52.080;5.624;2022-07-23T11:22:52;27.70;65.60
25450;DHT22;13371;52.080;5.624;2022-07-23T11:27:50;27.90;63.70
25450;DHT22;13371;52.080;5.624;2022-07-23T11:32:54;27.80;59.20
25450;DHT22;13371;52.080;5.624;2022-07-23T11:35:41;27.90;62.40
25450;DHT22;13371;52.080;5.624;2022-07-23T11:38:18;27.40;58.60
25450;DHT22;13371;52.080;5.624;2022-07-23T11:40:46;27.50;63.80
25450;DHT22;13371;52.080;5.624;2022-07-23T11:43:13;27.50;61.70
25450;DHT22;13371;52.080;5.624;2022-07-23T11:45:42;27.70;61.10
25450;DHT22;13371;52.080;5.624;2022-07-23T11:48:22;28.00;61.60
25450;DHT22;13371;52.080;5.624;2022-07-23T11:50:49;28.00;58.80
25450;DHT22;13371;52.080;5.624;2022-07-23T11:53:28;28.20;60.10
25450;DHT22;13371;52.080;5.624;2022-07-23T11:56:06;28.10;61.30
25450;DHT22;13371;52.080;5.624;2022-07-23T11:58:35;27.60;59.80
25450;DHT22;13371;52.080;5.624;2022-07-23T12:01:01;26.90;62.20
25450;DHT22;13371;52.080;5.624;2022-07-23T12:03:27;27.20;59.90
25450;DHT22;13371;52.080;5.624;2022-07-23T12:05:59;27.70;62.60
25450;DHT22;13371;52.080;5.624;2022-07-23T12:08:25;28.10;60.30
25450;DHT22;13371;52.080;5.624;2022-07-23T12:10:50;28.30;61.00
25450;DHT22;13371;52.080;5.624;2022-07-23T12:13:18;28.20;60.20
25450;DHT22;13371;52.080;5.624;2022-07-23T12:15:50;28.30;61.20
25450;DHT22;13371;52.080;5.624;2022-07-23T12:18:21;28.60;61.10
25450;DHT22;13371;52.080;5.624;2022-07-23T12:20:50;28.90;61.40
25450;DHT22;13371;52.080;5.624;2022-07-23T12:23:17;29.00;58.80
25450;DHT22;13371;52.080;5.624;2022-07-23T12:25:44;29.30;60.30
25450;DHT22;13371;52.080;5.624;2022-07-23T12:28:13;29.00;58.40
25450;DHT22;13371;52.080;5.624;2022-07-23T12:30:42;28.50;57.00
25450;DHT22;13371;52.080;5.624;2022-07-23T12:33:10;28.50;60.60
25450;DHT22;13371;52.080;5.624;2022-07-23T12:35:44;27.70;58.80
25450;DHT22;13371;52.080;5.624;2022-07-23T12:38:13;27.90;60.00
25450;DHT22;13371;52.080;5.624;2022-07-23T12:43:10;28.60;63.00
25450;DHT22;13371;52.080;5.624;2022-07-23T12:45:45;29.00;60.80
25450;DHT22;13371;52.080;5.624;2022-07-23T12:51:26;28.90;57.60
25450;DHT22;13371;52.080;5.624;2022-07-23T12:54:13;29.00;59.20
25450;DHT22;13371;52.080;5.624;2022-07-23T12:56:40;29.30;60.50
25450;DHT22;13371;52.080;5.624;2022-07-23T12:59:11;29.50;59.10
25450;DHT22;13371;52.080;5.624;2022-07-23T13:01:40;29.20;58.20
25450;DHT22;13371;52.080;5.624;2022-07-23T13:04:11;29.00;57.40
25450;DHT22;13371;52.080;5.624;2022-07-23T13:06:43;28.30;57.70
25450;DHT22;13371;52.080;5.624;2022-07-23T13:09:14;28.40;58.10
25450;DHT22;13371;52.080;5.624;2022-07-23T13:11:40;28.50;58.40
25450;DHT22;13371;52.080;5.624;2022-07-23T13:14:06;28.20;57.60
25450;DHT22;13371;52.080;5.624;2022-07-23T13:16:32;28.20;58.70
25450;DHT22;13371;52.080;5.624;2022-07-23T13:18:59;28.30;59.80
25450;DHT22;13371;52.080;5.624;2022-07-23T13:21:26;28.50;59.30
25450;DHT22;13371;52.080;5.624;2022-07-23T13:23:52;28.80;61.10
25450;DHT22;13371;52.080;5.624;2022-07-23T13:26:17;28.90;59.80
25450;DHT22;13371;52.080;5.624;2022-07-23T13:28:43;29.10;57.70
25450;DHT22;13371;52.080;5.624;2022-07-23T13:31:09;29.40;59.70
25450;DHT22;13371;52.080;5.624;2022-07-23T13:33:35;29.60;59.50
25450;DHT22;13371;52.080;5.624;2022-07-23T13:36:01;29.90;59.30
25450;DHT22;13371;52.080;5.624;2022-07-23T13:38:27;29.90;58.50
25450;DHT22;13371;52.080;5.624;2022-07-23T13:40:53;29.60;57.20
25450;DHT22;13371;52.080;5.624;2022-07-23T13:43:22;29.40;58.00
25450;DHT22;13371;52.080;5.624;2022-07-23T13:45:48;29.40;57.90
25450;DHT22;13371;52.080;5.624;2022-07-23T13:48:15;29.50;57.40
25450;DHT22;13371;52.080;5.624;2022-07-23T13:50:41;29.40;56.70
25450;DHT22;13371;52.080;5.624;2022-07-23T13:53:09;29.40;55.70
25450;DHT22;13371;52.080;5.624;2022-07-23T13:55:37;29.60;58.40
25450;DHT22;13371;52.080;5.624;2022-07-23T13:58:03;29.20;58.20
25450;DHT22;13371;52.080;5.624;2022-07-23T14:00:30;29.40;55.80
25450;DHT22;13371;52.080;5.624;2022-07-23T14:02:58;29.00;57.00
25450;DHT22;13371;52.080;5.624;2022-07-23T14:05:24;28.80;58.10
25450;DHT22;13371;52.080;5.624;2022-07-23T14:07:49;28.80;57.10
25450;DHT22;13371;52.080;5.624;2022-07-23T14:10:17;28.90;59.10
25450;DHT22;13371;52.080;5.624;2022-07-23T14:12:44;29.30;59.10
25450;DHT22;13371;52.080;5.624;2022-07-23T14:15:10;29.30;57.60
25450;DHT22;13371;52.080;5.624;2022-07-23T14:17:37;29.20;56.80
25450;DHT22;13371;52.080;5.624;2022-07-23T14:20:04;29.10;57.80
25450;DHT22;13371;52.080;5.624;2022-07-23T14:22:30;28.70;58.40
25450;DHT22;13371;52.080;5.624;2022-07-23T14:24:56;28.90;59.70
25450;DHT22;13371;52.080;5.624;2022-07-23T14:27:23;29.30;58.60
25450;DHT22;13371;52.080;5.624;2022-07-23T14:29:49;29.00;56.30
25450;DHT22;13371;52.080;5.624;2022-07-23T14:32:14;29.40;57.80
25450;DHT22;13371;52.080;5.624;2022-07-23T14:34:40;29.50;58.30
25450;DHT22;13371;52.080;5.624;2022-07-23T14:37:05;29.30;59.90
25450;DHT22;13371;52.080;5.624;2022-07-23T14:39:31;29.20;57.10
25450;DHT22;13371;52.080;5.624;2022-07-23T14:41:56;29.30;59.30
25450;DHT22;13371;52.080;5.624;2022-07-23T14:44:22;29.00;56.00
25450;DHT22;13371;52.080;5.624;2022-07-23T14:46:48;28.90;57.80
25450;DHT22;13371;52.080;5.624;2022-07-23T14:49:13;29.50;58.30
25450;DHT22;13371;52.080;5.624;2022-07-23T14:51:39;29.50;58.30
25450;DHT22;13371;52.080;5.624;2022-07-23T14:54:07;29.80;58.00
25450;DHT22;13371;52.080;5.624;2022-07-23T14:56:33;30.10;57.20
25450;DHT22;13371;52.080;5.624;2022-07-23T14:58:59;30.10;58.80
25450;DHT22;13371;52.080;5.624;2022-07-23T15:01:24;30.50;57.50
25450;DHT22;13371;52.080;5.624;2022-07-23T15:03:50;30.50;55.90
25450;DHT22;13371;52.080;5.624;2022-07-23T15:06:16;30.30;56.30
25450;DHT22;13371;52.080;5.624;2022-07-23T15:08:43;30.40;55.70
25450;DHT22;13371;52.080;5.624;2022-07-23T15:11:08;29.80;54.90
25450;DHT22;13371;52.080;5.624;2022-07-23T15:13:35;29.60;55.80
25450;DHT22;13371;52.080;5.624;2022-07-23T15:16:02;29.60;58.10
25450;DHT22;13371;52.080;5.624;2022-07-23T15:18:28;29.80;58.10
25450;DHT22;13371;52.080;5.624;2022-07-23T15:20:54;29.90;57.10
25450;DHT22;13371;52.080;5.624;2022-07-23T15:23:20;29.80;56.90
25450;DHT22;13371;52.080;5.624;2022-07-23T15:25:45;29.60;56.60
25450;DHT22;13371;52.080;5.624;2022-07-23T15:28:11;29.40;56.80
25450;DHT22;13371;52.080;5.624;2022-07-23T15:30:36;29.40;57.10
25450;DHT22;13371;52.080;5.624;2022-07-23T15:33:02;29.20;57.30
25450;DHT22;13371;52.080;5.624;2022-07-23T15:35:28;29.30;57.80
25450;DHT22;13371;52.080;5.624;2022-07-23T15:37:53;29.20;57.10
25450;DHT22;13371;52.080;5.624;2022-07-23T15:40:19;28.90;58.90
25450;DHT22;13371;52.080;5.624;2022-07-23T15:42:44;28.50;58.70
25450;DHT22;13371;52.080;5.624;2022-07-23T15:45:10;28.50;59.00
25450;DHT22;13371;52.080;5.624;2022-07-23T15:47:35;28.90;58.40
25450;DHT22;13371;52.080;5.624;2022-07-23T15:50:01;29.00;58.80
25450;DHT22;13371;52.080;5.624;2022-07-23T15:52:27;29.40;59.10
25450;DHT22;13371;52.080;5.624;2022-07-23T15:54:52;28.40;57.70
25450;DHT22;13371;52.080;5.624;2022-07-23T15:57:18;27.80;59.60
25450;DHT22;13371;52.080;5.624;2022-07-23T15:59:43;28.10;60.80
25450;DHT22;13371;52.080;5.624;2022-07-23T16:02:09;28.60;60.40
25450;DHT22;13371;52.080;5.624;2022-07-23T16:04:34;28.60;58.10
25450;DHT22;13371;52.080;5.624;2022-07-23T16:07:00;28.60;58.50
25450;DHT22;13371;52.080;5.624;2022-07-23T16:09:26;28.80;59.90
25450;DHT22;13371;52.080;5.624;2022-07-23T16:11:51;28.90;58.80
25450;DHT22;13371;52.080;5.624;2022-07-23T16:14:18;29.10;57.30